Bismarck, ND

11:18 AM CST on March 03, 2015 (GMT -0600)
Highland Acres | Change Station
CLOSE
Current Station
Personal Weather Station
Location: Bismarck, ND
Elevation: 1713 ft
Nearby Weather Stations
Active Advisory: Wind Advisory Active Notice: Public Information Statement

Elev 1713 ft 46.81 °N, 100.81 °W | Updated 3 minutes ago

Mostly Cloudy
Mostly Cloudy
9.9 °F
Feels Like -3 °F
N
9.4
Wind Variable Wind from WSW

Today
High -- | Low -- °F
--% Chance of Precip.
Yesterday
High -- | Low -- °F
Precip. -- in
7:19 AM 6:31 PM
Waxing Gibbous, 96% visible
Pressure 30.14 in
Visibility 10.0 miles
Clouds Mostly Cloudy 3300 ft
Windchill -3 °F
Dew Point -3 °F
Humidity 54%
Rainfall 5.23 in
Snow Depth Not available.
UV 2 out of 12
Pollen .30 out of 12
Air Quality Not available.
Flu Activity Not available.
METAR KBIS 031652Z 32024G31KT 10SM BKN033 M12/M21 A3005 RMK AO2 PK WND 32036/1635 SLP205 T11221206

More Conditions Fewer Conditions

Pressure 30.14 in
Visibility 10.0 miles
Clouds Mostly Cloudy 3300 ft
Windchill -3 °F
Dew Point -3 °F
Humidity 54%
Rainfall 5.23 in
Snow Depth Not available.
UV 2 out of 12
Pollen .30 out of 12
Air Quality Not available.
Flu Activity Not available.
METAR KBIS 031652Z 32024G31KT 10SM BKN033 M12/M21 A3005 RMK AO2 PK WND 32036/1635 SLP205 T11221206

More Conditions Fewer Conditions

10-Day Weather Forecast

Almanac

Astronomy

Mar. 03, 2015 Rise Set
Actual Time
Civil Twilight
Nautical Twilight
Astronomical Twilight
Moon
Length of Visible Light
Length of Day
Tomorrow will be .
, % of the Moon is Illuminated

Today's Extremes

State Highs State Lows

Community

WunderPhotos

Upload Photos

1,802,174 photos uploaded!

WunderBlogs® & News

Nearby

Air Quality

  Air Quality AQ Index Pollutant
Not available.

Snow Depth

Station Depth Elevation

Earthquake Activity

City Distance Mag. Time & Date
Minimum magnitude displayed is 2.5.

Coastal Water Temperatures

Place Temperature

Nearby Weather Stations

Wind Advisory
Statement as of 9:05 AM CST on March 03, 2015

... Wind Advisory now in effect until noon CST today...

* timing... through midday today.

* Winds... northwest sustained near 30 mph. Gusts to 40 mph.

* Impacts... difficult driving conditions for high profile
vehicles. Working on elevated structures will be hazardous.